sensor_id;sensor_type;location;lat;lon;timestamp;temperature;humidity
33741;DHT22;20065;48.380;10.892;2022-09-13T00:00:44;14.60;99.90
33741;DHT22;20065;48.380;10.892;2022-09-13T00:03:31;14.80;99.90
33741;DHT22;20065;48.380;10.892;2022-09-13T00:06:19;14.90;99.90
33741;DHT22;20065;48.380;10.892;2022-09-13T00:09:05;14.90;99.90
33741;DHT22;20065;48.380;10.892;2022-09-13T00:11:52;14.90;99.90
33741;DHT22;20065;48.380;10.892;2022-09-13T00:14:38;14.80;99.90
33741;DHT22;20065;48.380;10.892;2022-09-13T00:17:25;14.90;99.90
33741;DHT22;20065;48.380;10.892;2022-09-13T00:20:12;14.80;99.90
33741;DHT22;20065;48.380;10.892;2022-09-13T00:22:58;14.70;99.90
33741;DHT22;20065;48.380;10.892;2022-09-13T00:25:44;14.80;99.90
33741;DHT22;20065;48.380;10.892;2022-09-13T00:28:30;14.70;99.90
33741;DHT22;20065;48.380;10.892;2022-09-13T00:31:17;14.70;99.90
33741;DHT22;20065;48.380;10.892;2022-09-13T00:34:06;14.60;99.90
33741;DHT22;20065;48.380;10.892;2022-09-13T00:36:52;14.40;99.90
33741;DHT22;20065;48.380;10.892;2022-09-13T00:39:38;14.30;99.90
33741;DHT22;20065;48.380;10.892;2022-09-13T00:42:28;14.30;99.90
33741;DHT22;20065;48.380;10.892;2022-09-13T00:45:17;14.40;99.90
33741;DHT22;20065;48.380;10.892;2022-09-13T00:48:05;14.10;99.90
33741;DHT22;20065;48.380;10.892;2022-09-13T00:50:55;13.90;99.90
33741;DHT22;20065;48.380;10.892;2022-09-13T00:53:45;13.90;99.90
33741;DHT22;20065;48.380;10.892;2022-09-13T00:56:40;13.80;99.90
33741;DHT22;20065;48.380;10.892;2022-09-13T00:59:59;14.10;99.90
33741;DHT22;20065;48.380;10.892;2022-09-13T01:03:03;14.00;99.90
33741;DHT22;20065;48.380;10.892;2022-09-13T01:05:57;13.40;99.90
33741;DHT22;20065;48.380;10.892;2022-09-13T01:08:49;14.00;99.90
33741;DHT22;20065;48.380;10.892;2022-09-13T01:14:27;14.20;99.90
33741;DHT22;20065;48.380;10.892;2022-09-13T01:17:14;14.20;99.90
33741;DHT22;20065;48.380;10.892;2022-09-13T01:20:02;14.20;99.90
33741;DHT22;20065;48.380;10.892;2022-09-13T01:27:00;14.20;99.90
33741;DHT22;20065;48.380;10.892;2022-09-13T01:39:07;13.80;99.90
33741;DHT22;20065;48.380;10.892;2022-09-13T01:45:06;13.80;99.90
33741;DHT22;20065;48.380;10.892;2022-09-13T01:48:02;13.90;99.90
33741;DHT22;20065;48.380;10.892;2022-09-13T01:51:05;13.90;99.90
33741;DHT22;20065;48.380;10.892;2022-09-13T02:00:10;14.00;99.90
33741;DHT22;20065;48.380;10.892;2022-09-13T02:03:04;14.00;99.90
33741;DHT22;20065;48.380;10.892;2022-09-13T02:05:58;14.00;99.90
33741;DHT22;20065;48.380;10.892;2022-09-13T02:08:54;13.90;99.90
33741;DHT22;20065;48.380;10.892;2022-09-13T02:11:45;13.80;99.90
33741;DHT22;20065;48.380;10.892;2022-09-13T02:14:37;13.70;99.90
33741;DHT22;20065;48.380;10.892;2022-09-13T02:17:27;13.60;99.90
33741;DHT22;20065;48.380;10.892;2022-09-13T02:20:27;13.40;99.90
33741;DHT22;20065;48.380;10.892;2022-09-13T02:23:24;13.50;99.90
33741;DHT22;20065;48.380;10.892;2022-09-13T02:26:13;13.50;99.90
33741;DHT22;20065;48.380;10.892;2022-09-13T02:29:04;13.30;99.90
33741;DHT22;20065;48.380;10.892;2022-09-13T02:32:21;13.30;99.90
33741;DHT22;20065;48.380;10.892;2022-09-13T02:38:35;13.20;99.90
33741;DHT22;20065;48.380;10.892;2022-09-13T02:44:40;13.20;99.90
33741;DHT22;20065;48.380;10.892;2022-09-13T02:47:32;13.20;99.90
33741;DHT22;20065;48.380;10.892;2022-09-13T02:57:07;13.10;99.90
33741;DHT22;20065;48.380;10.892;2022-09-13T02:59:56;13.00;99.90
33741;DHT22;20065;48.380;10.892;2022-09-13T03:02:43;13.00;99.90
33741;DHT22;20065;48.380;10.892;2022-09-13T03:05:30;12.90;99.90
33741;DHT22;20065;48.380;10.892;2022-09-13T03:08:16;12.80;99.90
33741;DHT22;20065;48.380;10.892;2022-09-13T03:11:23;12.50;99.90
33741;DHT22;20065;48.380;10.892;2022-09-13T03:20:12;12.40;99.90
33741;DHT22;20065;48.380;10.892;2022-09-13T03:23:22;12.60;99.90
33741;DHT22;20065;48.380;10.892;2022-09-13T03:29:53;12.70;99.90
33741;DHT22;20065;48.380;10.892;2022-09-13T03:33:06;12.50;99.90
33741;DHT22;20065;48.380;10.892;2022-09-13T03:39:24;12.20;99.90
33741;DHT22;20065;48.380;10.892;2022-09-13T03:42:30;12.40;99.90
33741;DHT22;20065;48.380;10.892;2022-09-13T03:45:20;12.40;99.90
33741;DHT22;20065;48.380;10.892;2022-09-13T03:48:09;12.50;99.90
33741;DHT22;20065;48.380;10.892;2022-09-13T03:50:57;12.40;99.90
33741;DHT22;20065;48.380;10.892;2022-09-13T03:53:51;12.30;99.90
33741;DHT22;20065;48.380;10.892;2022-09-13T03:56:41;12.40;99.90
33741;DHT22;20065;48.380;10.892;2022-09-13T03:59:27;12.50;99.90
33741;DHT22;20065;48.380;10.892;2022-09-13T04:02:14;12.60;99.90
33741;DHT22;20065;48.380;10.892;2022-09-13T04:05:01;12.60;99.90
33741;DHT22;20065;48.380;10.892;2022-09-13T04:07:47;12.30;99.90
33741;DHT22;20065;48.380;10.892;2022-09-13T04:10:36;12.20;99.90
33741;DHT22;20065;48.380;10.892;2022-09-13T04:13:23;12.10;99.90
33741;DHT22;20065;48.380;10.892;2022-09-13T04:16:09;12.00;99.90
33741;DHT22;20065;48.380;10.892;2022-09-13T04:18:55;11.90;99.90
33741;DHT22;20065;48.380;10.892;2022-09-13T04:21:42;11.90;99.90
33741;DHT22;20065;48.380;10.892;2022-09-13T04:24:29;12.10;99.90
33741;DHT22;20065;48.380;10.892;2022-09-13T04:27:16;12.30;99.90
33741;DHT22;20065;48.380;10.892;2022-09-13T04:30:02;12.30;99.90
33741;DHT22;20065;48.380;10.892;2022-09-13T04:32:48;12.40;99.90
33741;DHT22;20065;48.380;10.892;2022-09-13T04:35:34;12.40;99.90
33741;DHT22;20065;48.380;10.892;2022-09-13T04:38:20;12.40;99.90
33741;DHT22;20065;48.380;10.892;2022-09-13T04:41:06;12.50;99.90
33741;DHT22;20065;48.380;10.892;2022-09-13T04:43:55;12.50;99.90
33741;DHT22;20065;48.380;10.892;2022-09-13T04:46:42;12.40;99.90
33741;DHT22;20065;48.380;10.892;2022-09-13T04:49:28;12.40;99.90
33741;DHT22;20065;48.380;10.892;2022-09-13T04:52:14;12.50;99.90
33741;DHT22;20065;48.380;10.892;2022-09-13T04:55:00;12.50;99.90
33741;DHT22;20065;48.380;10.892;2022-09-13T04:57:52;12.00;99.90
33741;DHT22;20065;48.380;10.892;2022-09-13T05:00:38;12.50;99.90
33741;DHT22;20065;48.380;10.892;2022-09-13T05:03:25;12.50;99.90
33741;DHT22;20065;48.380;10.892;2022-09-13T05:06:14;12.50;99.90
33741;DHT22;20065;48.380;10.892;2022-09-13T05:09:03;12.50;99.90
33741;DHT22;20065;48.380;10.892;2022-09-13T05:11:50;12.40;99.90
33741;DHT22;20065;48.380;10.892;2022-09-13T05:14:36;12.60;99.90
33741;DHT22;20065;48.380;10.892;2022-09-13T05:17:22;12.50;99.90
33741;DHT22;20065;48.380;10.892;2022-09-13T05:20:09;12.80;99.90
33741;DHT22;20065;48.380;10.892;2022-09-13T05:22:55;12.70;99.90
33741;DHT22;20065;48.380;10.892;2022-09-13T05:25:41;12.70;99.90
33741;DHT22;20065;48.380;10.892;2022-09-13T05:28:29;12.80;99.90
33741;DHT22;20065;48.380;10.892;2022-09-13T05:31:21;12.80;99.90
33741;DHT22;20065;48.380;10.892;2022-09-13T05:34:12;12.80;99.90
33741;DHT22;20065;48.380;10.892;2022-09-13T05:36:59;12.90;99.90
33741;DHT22;20065;48.380;10.892;2022-09-13T05:39:45;13.00;99.90
33741;DHT22;20065;48.380;10.892;2022-09-13T05:42:31;13.00;99.90
33741;DHT22;20065;48.380;10.892;2022-09-13T05:45:17;12.70;99.90
33741;DHT22;20065;48.380;10.892;2022-09-13T05:48:03;12.60;99.90
33741;DHT22;20065;48.380;10.892;2022-09-13T05:50:49;12.70;99.90
33741;DHT22;20065;48.380;10.892;2022-09-13T05:53:41;12.80;99.90
33741;DHT22;20065;48.380;10.892;2022-09-13T05:56:28;13.00;99.90
33741;DHT22;20065;48.380;10.892;2022-09-13T05:59:15;13.30;99.90
33741;DHT22;20065;48.380;10.892;2022-09-13T06:02:01;13.30;99.90
33741;DHT22;20065;48.380;10.892;2022-09-13T06:04:47;13.40;99.90
33741;DHT22;20065;48.380;10.892;2022-09-13T06:07:33;13.20;99.90
33741;DHT22;20065;48.380;10.892;2022-09-13T06:10:20;13.10;99.90
33741;DHT22;20065;48.380;10.892;2022-09-13T06:13:06;12.90;99.90
33741;DHT22;20065;48.380;10.892;2022-09-13T06:15:57;13.10;99.90
33741;DHT22;20065;48.380;10.892;2022-09-13T06:18:43;13.00;99.90
33741;DHT22;20065;48.380;10.892;2022-09-13T06:21:30;13.00;99.90
33741;DHT22;20065;48.380;10.892;2022-09-13T06:24:16;13.20;99.90
33741;DHT22;20065;48.380;10.892;2022-09-13T06:27:02;13.30;99.90
33741;DHT22;20065;48.380;10.892;2022-09-13T06:29:48;13.40;99.90
33741;DHT22;20065;48.380;10.892;2022-09-13T06:32:34;13.50;99.90
33741;DHT22;20065;48.380;10.892;2022-09-13T06:35:21;13.60;99.90
33741;DHT22;20065;48.380;10.892;2022-09-13T06:38:07;13.70;99.90
33741;DHT22;20065;48.380;10.892;2022-09-13T06:41:07;13.80;99.90
33741;DHT22;20065;48.380;10.892;2022-09-13T06:43:55;13.90;99.90
33741;DHT22;20065;48.380;10.892;2022-09-13T06:46:42;14.10;99.90
33741;DHT22;20065;48.380;10.892;2022-09-13T06:49:28;14.30;99.90
33741;DHT22;20065;48.380;10.892;2022-09-13T06:52:16;14.40;99.90
33741;DHT22;20065;48.380;10.892;2022-09-13T06:55:02;14.70;99.90
33741;DHT22;20065;48.380;10.892;2022-09-13T06:57:48;14.90;99.90
33741;DHT22;20065;48.380;10.892;2022-09-13T07:00:35;15.20;99.90
33741;DHT22;20065;48.380;10.892;2022-09-13T07:03:26;15.50;99.90
33741;DHT22;20065;48.380;10.892;2022-09-13T07:06:23;15.90;99.90
33741;DHT22;20065;48.380;10.892;2022-09-13T07:09:12;16.00;99.90
33741;DHT22;20065;48.380;10.892;2022-09-13T07:11:58;15.90;99.90
33741;DHT22;20065;48.380;10.892;2022-09-13T07:14:45;16.00;99.90
33741;DHT22;20065;48.380;10.892;2022-09-13T07:17:31;16.10;99.90
33741;DHT22;20065;48.380;10.892;2022-09-13T07:20:17;16.00;99.90
33741;DHT22;20065;48.380;10.892;2022-09-13T07:23:03;16.00;99.90
33741;DHT22;20065;48.380;10.892;2022-09-13T07:25:53;16.10;99.90
33741;DHT22;20065;48.380;10.892;2022-09-13T07:28:45;16.20;99.90
33741;DHT22;20065;48.380;10.892;2022-09-13T07:31:34;16.30;99.90
33741;DHT22;20065;48.380;10.892;2022-09-13T07:34:22;16.40;99.90
33741;DHT22;20065;48.380;10.892;2022-09-13T07:37:09;16.30;99.90
33741;DHT22;20065;48.380;10.892;2022-09-13T07:39:55;16.40;99.90
33741;DHT22;20065;48.380;10.892;2022-09-13T07:42:41;16.50;99.90
33741;DHT22;20065;48.380;10.892;2022-09-13T07:45:27;16.50;99.90
33741;DHT22;20065;48.380;10.892;2022-09-13T07:48:14;16.20;99.90
33741;DHT22;20065;48.380;10.892;2022-09-13T07:51:23;16.30;99.90
33741;DHT22;20065;48.380;10.892;2022-09-13T07:54:12;16.40;99.90
33741;DHT22;20065;48.380;10.892;2022-09-13T07:56:59;16.50;99.90
33741;DHT22;20065;48.380;10.892;2022-09-13T07:59:45;16.60;99.90
33741;DHT22;20065;48.380;10.892;2022-09-13T08:02:31;16.60;99.90
33741;DHT22;20065;48.380;10.892;2022-09-13T08:05:18;16.70;99.90
33741;DHT22;20065;48.380;10.892;2022-09-13T08:08:04;16.90;99.90
33741;DHT22;20065;48.380;10.892;2022-09-13T08:10:53;17.10;99.90
33741;DHT22;20065;48.380;10.892;2022-09-13T08:13:39;17.00;99.90
33741;DHT22;20065;48.380;10.892;2022-09-13T08:16:26;17.20;99.90
33741;DHT22;20065;48.380;10.892;2022-09-13T08:19:15;17.50;99.90
33741;DHT22;20065;48.380;10.892;2022-09-13T08:22:01;17.60;99.90
33741;DHT22;20065;48.380;10.892;2022-09-13T08:24:47;17.80;99.90
33741;DHT22;20065;48.380;10.892;2022-09-13T08:27:33;17.80;99.90
33741;DHT22;20065;48.380;10.892;2022-09-13T08:30:19;17.90;99.90
33741;DHT22;20065;48.380;10.892;2022-09-13T08:33:05;18.00;99.90
33741;DHT22;20065;48.380;10.892;2022-09-13T08:35:52;18.30;99.90
33741;DHT22;20065;48.380;10.892;2022-09-13T08:38:38;18.40;99.90
33741;DHT22;20065;48.380;10.892;2022-09-13T08:44:29;18.40;99.90
33741;DHT22;20065;48.380;10.892;2022-09-13T08:47:40;18.50;99.90
33741;DHT22;20065;48.380;10.892;2022-09-13T08:50:33;18.50;99.90
33741;DHT22;20065;48.380;10.892;2022-09-13T08:53:31;18.70;99.90
33741;DHT22;20065;48.380;10.892;2022-09-13T09:05:50;19.00;99.90
33741;DHT22;20065;48.380;10.892;2022-09-13T09:08:39;19.30;99.90
33741;DHT22;20065;48.380;10.892;2022-09-13T09:11:30;19.50;99.90
33741;DHT22;20065;48.380;10.892;2022-09-13T09:14:35;19.60;99.90
33741;DHT22;20065;48.380;10.892;2022-09-13T09:17:28;19.90;99.90
33741;DHT22;20065;48.380;10.892;2022-09-13T09:23:22;20.00;99.90
33741;DHT22;20065;48.380;10.892;2022-09-13T09:26:23;20.30;99.90
33741;DHT22;20065;48.380;10.892;2022-09-13T09:29:20;20.80;99.90
33741;DHT22;20065;48.380;10.892;2022-09-13T09:35:55;21.30;99.90
33741;DHT22;20065;48.380;10.892;2022-09-13T09:38:43;20.70;99.90
33741;DHT22;20065;48.380;10.892;2022-09-13T09:41:33;20.80;99.90
33741;DHT22;20065;48.380;10.892;2022-09-13T09:44:22;21.00;99.90
33741;DHT22;20065;48.380;10.892;2022-09-13T09:47:13;21.20;99.90
33741;DHT22;20065;48.380;10.892;2022-09-13T09:50:13;21.30;99.90
33741;DHT22;20065;48.380;10.892;2022-09-13T09:53:21;21.50;99.90
33741;DHT22;20065;48.380;10.892;2022-09-13T09:56:25;22.30;99.90
33741;DHT22;20065;48.380;10.892;2022-09-13T09:59:26;22.50;99.90
33741;DHT22;20065;48.380;10.892;2022-09-13T10:02:18;22.70;99.90
33741;DHT22;20065;48.380;10.892;2022-09-13T10:05:05;23.00;99.90
33741;DHT22;20065;48.380;10.892;2022-09-13T10:08:02;23.40;99.90
33741;DHT22;20065;48.380;10.892;2022-09-13T10:10:54;23.60;99.90
33741;DHT22;20065;48.380;10.892;2022-09-13T10:14:02;23.90;99.90
33741;DHT22;20065;48.380;10.892;2022-09-13T10:17:05;23.70;99.90
33741;DHT22;20065;48.380;10.892;2022-09-13T10:19:53;24.00;99.90
33741;DHT22;20065;48.380;10.892;2022-09-13T10:22:40;23.20;99.90
33741;DHT22;20065;48.380;10.892;2022-09-13T10:25:29;23.60;99.90
33741;DHT22;20065;48.380;10.892;2022-09-13T10:28:18;23.90;99.90
33741;DHT22;20065;48.380;10.892;2022-09-13T10:31:10;24.10;99.90
33741;DHT22;20065;48.380;10.892;2022-09-13T10:33:59;24.10;99.90
33741;DHT22;20065;48.380;10.892;2022-09-13T10:37:17;24.00;99.90
33741;DHT22;20065;48.380;10.892;2022-09-13T10:40:11;23.30;99.90
33741;DHT22;20065;48.380;10.892;2022-09-13T10:43:04;23.50;99.90
33741;DHT22;20065;48.380;10.892;2022-09-13T10:45:52;23.30;99.90
33741;DHT22;20065;48.380;10.892;2022-09-13T10:48:47;23.80;99.90
33741;DHT22;20065;48.380;10.892;2022-09-13T10:51:40;23.80;99.90
33741;DHT22;20065;48.380;10.892;2022-09-13T10:54:28;24.00;99.90
33741;DHT22;20065;48.380;10.892;2022-09-13T10:57:35;23.90;99.90
33741;DHT22;20065;48.380;10.892;2022-09-13T11:00:26;24.00;99.90
33741;DHT22;20065;48.380;10.892;2022-09-13T11:09:35;23.90;99.90
33741;DHT22;20065;48.380;10.892;2022-09-13T11:15:40;24.00;99.90
33741;DHT22;20065;48.380;10.892;2022-09-13T11:21:52;24.30;99.90
33741;DHT22;20065;48.380;10.892;2022-09-13T11:25:21;24.60;99.90
33741;DHT22;20065;48.380;10.892;2022-09-13T11:28:34;24.40;99.90
33741;DHT22;20065;48.380;10.892;2022-09-13T11:31:47;24.60;99.90
33741;DHT22;20065;48.380;10.892;2022-09-13T11:34:45;24.40;99.90
33741;DHT22;20065;48.380;10.892;2022-09-13T11:41:35;24.10;99.90
33741;DHT22;20065;48.380;10.892;2022-09-13T11:50:59;24.50;99.90
33741;DHT22;20065;48.380;10.892;2022-09-13T11:56:59;24.40;99.90
33741;DHT22;20065;48.380;10.892;2022-09-13T11:59:52;24.20;99.90
33741;DHT22;20065;48.380;10.892;2022-09-13T12:06:04;24.40;99.90
33741;DHT22;20065;48.380;10.892;2022-09-13T12:12:10;24.60;99.90
33741;DHT22;20065;48.380;10.892;2022-09-13T12:15:05;25.20;99.90
33741;DHT22;20065;48.380;10.892;2022-09-13T12:18:01;25.50;99.90
33741;DHT22;20065;48.380;10.892;2022-09-13T12:20:53;25.50;99.90
33741;DHT22;20065;48.380;10.892;2022-09-13T12:23:50;25.50;99.90
33741;DHT22;20065;48.380;10.892;2022-09-13T12:26:47;25.80;99.90
33741;DHT22;20065;48.380;10.892;2022-09-13T12:29:59;25.80;99.90
33741;DHT22;20065;48.380;10.892;2022-09-13T12:32:47;25.80;99.90
33741;DHT22;20065;48.380;10.892;2022-09-13T12:35:41;26.20;99.90
33741;DHT22;20065;48.380;10.892;2022-09-13T12:39:03;26.40;99.90
33741;DHT22;20065;48.380;10.892;2022-09-13T12:48:10;26.90;99.90
33741;DHT22;20065;48.380;10.892;2022-09-13T12:57:47;26.90;99.90
33741;DHT22;20065;48.380;10.892;2022-09-13T13:09:48;27.10;99.90
33741;DHT22;20065;48.380;10.892;2022-09-13T13:12:39;26.90;99.90
33741;DHT22;20065;48.380;10.892;2022-09-13T13:18:25;25.80;99.90
33741;DHT22;20065;48.380;10.892;2022-09-13T13:27:33;27.80;99.90
33741;DHT22;20065;48.380;10.892;2022-09-13T13:33:28;28.20;99.90
33741;DHT22;20065;48.380;10.892;2022-09-13T13:36:22;28.30;99.90
33741;DHT22;20065;48.380;10.892;2022-09-13T13:42:27;26.70;99.90
33741;DHT22;20065;48.380;10.892;2022-09-13T13:45:25;26.40;99.90
33741;DHT22;20065;48.380;10.892;2022-09-13T13:48:34;26.20;99.90
33741;DHT22;20065;48.380;10.892;2022-09-13T13:51:30;26.60;99.90
33741;DHT22;20065;48.380;10.892;2022-09-13T13:54:31;26.60;99.90
33741;DHT22;20065;48.380;10.892;2022-09-13T13:57:59;27.20;99.90
33741;DHT22;20065;48.380;10.892;2022-09-13T14:00:49;27.10;99.90
33741;DHT22;20065;48.380;10.892;2022-09-13T14:06:45;26.50;99.90
33741;DHT22;20065;48.380;10.892;2022-09-13T14:12:47;26.20;99.90
33741;DHT22;20065;48.380;10.892;2022-09-13T14:18:56;26.10;99.90
33741;DHT22;20065;48.380;10.892;2022-09-13T14:22:14;26.00;99.90
33741;DHT22;20065;48.380;10.892;2022-09-13T14:25:24;26.20;99.90
33741;DHT22;20065;48.380;10.892;2022-09-13T14:28:16;25.80;99.90
33741;DHT22;20065;48.380;10.892;2022-09-13T14:31:05;25.70;99.90
33741;DHT22;20065;48.380;10.892;2022-09-13T14:33:51;25.50;99.90
33741;DHT22;20065;48.380;10.892;2022-09-13T14:36:37;25.40;99.90
33741;DHT22;20065;48.380;10.892;2022-09-13T14:39:25;25.30;99.90
33741;DHT22;20065;48.380;10.892;2022-09-13T14:42:13;25.20;99.90
33741;DHT22;20065;48.380;10.892;2022-09-13T14:45:03;25.10;99.90
33741;DHT22;20065;48.380;10.892;2022-09-13T14:47:56;25.90;99.90
33741;DHT22;20065;48.380;10.892;2022-09-13T14:50:56;24.90;99.90
33741;DHT22;20065;48.380;10.892;2022-09-13T14:53:46;24.90;99.90
33741;DHT22;20065;48.380;10.892;2022-09-13T14:56:42;24.70;99.90
33741;DHT22;20065;48.380;10.892;2022-09-13T14:59:41;24.40;99.90
33741;DHT22;20065;48.380;10.892;2022-09-13T15:02:34;24.60;99.90
33741;DHT22;20065;48.380;10.892;2022-09-13T15:05:24;24.80;99.90
33741;DHT22;20065;48.380;10.892;2022-09-13T15:11:37;24.80;99.90
33741;DHT22;20065;48.380;10.892;2022-09-13T15:14:32;24.60;99.90
33741;DHT22;20065;48.380;10.892;2022-09-13T15:17:19;24.60;99.90
33741;DHT22;20065;48.380;10.892;2022-09-13T15:20:11;24.20;99.90
33741;DHT22;20065;48.380;10.892;2022-09-13T15:22:57;24.20;99.90
33741;DHT22;20065;48.380;10.892;2022-09-13T15:25:53;24.20;99.90
33741;DHT22;20065;48.380;10.892;2022-09-13T15:31:29;23.70;99.90
33741;DHT22;20065;48.380;10.892;2022-09-13T15:37:12;23.50;99.90
33741;DHT22;20065;48.380;10.892;2022-09-13T15:40:13;23.50;99.90
33741;DHT22;20065;48.380;10.892;2022-09-13T15:43:00;23.60;99.90
33741;DHT22;20065;48.380;10.892;2022-09-13T15:45:47;23.70;99.90
33741;DHT22;20065;48.380;10.892;2022-09-13T15:48:34;23.70;99.90
33741;DHT22;20065;48.380;10.892;2022-09-13T15:51:21;23.90;99.90
33741;DHT22;20065;48.380;10.892;2022-09-13T15:54:12;24.00;99.90
33741;DHT22;20065;48.380;10.892;2022-09-13T15:56:58;24.00;99.90
33741;DHT22;20065;48.380;10.892;2022-09-13T15:59:45;24.00;99.90
33741;DHT22;20065;48.380;10.892;2022-09-13T16:02:31;23.80;99.90
33741;DHT22;20065;48.380;10.892;2022-09-13T16:05:27;23.70;99.90
33741;DHT22;20065;48.380;10.892;2022-09-13T16:08:13;23.70;99.90
33741;DHT22;20065;48.380;10.892;2022-09-13T16:10:59;23.60;99.90
33741;DHT22;20065;48.380;10.892;2022-09-13T16:13:45;23.40;99.90
33741;DHT22;20065;48.380;10.892;2022-09-13T16:16:31;23.30;99.90
33741;DHT22;20065;48.380;10.892;2022-09-13T16:19:26;23.30;99.90
33741;DHT22;20065;48.380;10.892;2022-09-13T16:22:12;23.30;99.90
33741;DHT22;20065;48.380;10.892;2022-09-13T16:25:01;23.30;99.90
33741;DHT22;20065;48.380;10.892;2022-09-13T16:27:48;23.30;99.90
33741;DHT22;20065;48.380;10.892;2022-09-13T16:30:34;23.30;99.90
33741;DHT22;20065;48.380;10.892;2022-09-13T16:33:20;23.30;99.90
33741;DHT22;20065;48.380;10.892;2022-09-13T16:36:07;23.10;99.90
33741;DHT22;20065;48.380;10.892;2022-09-13T16:38:56;23.00;99.90
33741;DHT22;20065;48.380;10.892;2022-09-13T16:41:42;23.00;99.90
33741;DHT22;20065;48.380;10.892;2022-09-13T16:44:28;22.90;99.90
33741;DHT22;20065;48.380;10.892;2022-09-13T16:47:15;23.20;99.90
33741;DHT22;20065;48.380;10.892;2022-09-13T16:50:02;23.00;99.90
33741;DHT22;20065;48.380;10.892;2022-09-13T16:52:48;22.90;99.90
33741;DHT22;20065;48.380;10.892;2022-09-13T16:55:34;22.90;99.90
33741;DHT22;20065;48.380;10.892;2022-09-13T16:58:21;23.00;99.90
33741;DHT22;20065;48.380;10.892;2022-09-13T17:01:08;22.90;99.90
33741;DHT22;20065;48.380;10.892;2022-09-13T17:03:56;22.90;99.90
33741;DHT22;20065;48.380;10.892;2022-09-13T17:06:42;22.90;99.90
33741;DHT22;20065;48.380;10.892;2022-09-13T17:09:28;22.90;99.90
33741;DHT22;20065;48.380;10.892;2022-09-13T17:12:15;22.80;99.90
33741;DHT22;20065;48.380;10.892;2022-09-13T17:15:03;22.80;99.90
33741;DHT22;20065;48.380;10.892;2022-09-13T17:17:49;22.70;99.90
33741;DHT22;20065;48.380;10.892;2022-09-13T17:20:35;22.70;99.90
33741;DHT22;20065;48.380;10.892;2022-09-13T17:23:27;22.60;99.90
33741;DHT22;20065;48.380;10.892;2022-09-13T17:26:13;22.50;99.90
33741;DHT22;20065;48.380;10.892;2022-09-13T17:28:59;22.40;99.90
33741;DHT22;20065;48.380;10.892;2022-09-13T17:31:46;22.40;99.90
33741;DHT22;20065;48.380;10.892;2022-09-13T17:34:32;22.40;99.90
33741;DHT22;20065;48.380;10.892;2022-09-13T17:37:19;22.40;99.90
33741;DHT22;20065;48.380;10.892;2022-09-13T17:40:05;22.40;99.90
33741;DHT22;20065;48.380;10.892;2022-09-13T17:42:52;22.30;99.90
33741;DHT22;20065;48.380;10.892;2022-09-13T17:45:38;22.30;99.90
33741;DHT22;20065;48.380;10.892;2022-09-13T17:48:24;22.30;99.90
33741;DHT22;20065;48.380;10.892;2022-09-13T17:51:12;22.20;99.90
33741;DHT22;20065;48.380;10.892;2022-09-13T17:54:02;22.20;99.90
33741;DHT22;20065;48.380;10.892;2022-09-13T17:56:49;22.10;99.90
33741;DHT22;20065;48.380;10.892;2022-09-13T17:59:35;22.10;99.90
33741;DHT22;20065;48.380;10.892;2022-09-13T18:02:22;22.00;99.90
33741;DHT22;20065;48.380;10.892;2022-09-13T18:05:08;22.00;99.90
33741;DHT22;20065;48.380;10.892;2022-09-13T18:07:54;22.00;99.90
33741;DHT22;20065;48.380;10.892;2022-09-13T18:10:41;22.00;99.90
33741;DHT22;20065;48.380;10.892;2022-09-13T18:13:27;21.80;99.90
33741;DHT22;20065;48.380;10.892;2022-09-13T18:16:16;21.80;99.90
33741;DHT22;20065;48.380;10.892;2022-09-13T18:19:04;21.70;99.90
33741;DHT22;20065;48.380;10.892;2022-09-13T18:21:50;21.70;99.90
33741;DHT22;20065;48.380;10.892;2022-09-13T18:24:37;21.70;99.90
33741;DHT22;20065;48.380;10.892;2022-09-13T18:27:23;21.60;99.90
33741;DHT22;20065;48.380;10.892;2022-09-13T18:30:10;21.60;99.90
33741;DHT22;20065;48.380;10.892;2022-09-13T18:32:56;21.50;99.90
33741;DHT22;20065;48.380;10.892;2022-09-13T18:35:42;21.40;99.90
33741;DHT22;20065;48.380;10.892;2022-09-13T18:38:37;21.40;99.90
33741;DHT22;20065;48.380;10.892;2022-09-13T18:41:36;21.30;99.90
33741;DHT22;20065;48.380;10.892;2022-09-13T18:44:25;21.20;99.90
33741;DHT22;20065;48.380;10.892;2022-09-13T18:47:15;21.20;99.90
33741;DHT22;20065;48.380;10.892;2022-09-13T18:50:01;21.20;99.90
33741;DHT22;20065;48.380;10.892;2022-09-13T18:52:49;21.20;99.90
33741;DHT22;20065;48.380;10.892;2022-09-13T18:55:36;21.20;99.90
33741;DHT22;20065;48.380;10.892;2022-09-13T18:58:23;21.20;99.90
33741;DHT22;20065;48.380;10.892;2022-09-13T19:01:18;21.10;99.90
33741;DHT22;20065;48.380;10.892;2022-09-13T19:04:07;21.00;99.90
33741;DHT22;20065;48.380;10.892;2022-09-13T19:06:55;20.90;99.90
33741;DHT22;20065;48.380;10.892;2022-09-13T19:09:41;20.80;99.90
33741;DHT22;20065;48.380;10.892;2022-09-13T19:12:28;20.80;99.90
33741;DHT22;20065;48.380;10.892;2022-09-13T19:15:20;20.70;99.90
33741;DHT22;20065;48.380;10.892;2022-09-13T19:18:07;20.50;99.90
33741;DHT22;20065;48.380;10.892;2022-09-13T19:21:10;20.50;99.90
33741;DHT22;20065;48.380;10.892;2022-09-13T19:23:58;20.30;99.90
33741;DHT22;20065;48.380;10.892;2022-09-13T19:26:46;20.30;99.90
33741;DHT22;20065;48.380;10.892;2022-09-13T19:29:32;20.20;99.90
33741;DHT22;20065;48.380;10.892;2022-09-13T19:32:19;20.10;99.90
33741;DHT22;20065;48.380;10.892;2022-09-13T19:35:05;20.10;99.90
33741;DHT22;20065;48.380;10.892;2022-09-13T19:37:52;20.20;99.90
33741;DHT22;20065;48.380;10.892;2022-09-13T19:40:38;20.10;99.90
33741;DHT22;20065;48.380;10.892;2022-09-13T19:43:28;20.10;99.90
33741;DHT22;20065;48.380;10.892;2022-09-13T19:46:19;19.90;99.90
33741;DHT22;20065;48.380;10.892;2022-09-13T19:49:10;19.90;99.90
33741;DHT22;20065;48.380;10.892;2022-09-13T19:52:00;19.80;99.90
33741;DHT22;20065;48.380;10.892;2022-09-13T19:54:46;19.80;99.90
33741;DHT22;20065;48.380;10.892;2022-09-13T19:57:32;19.80;99.90
33741;DHT22;20065;48.380;10.892;2022-09-13T20:00:19;19.70;99.90
33741;DHT22;20065;48.380;10.892;2022-09-13T20:03:05;19.70;99.90
33741;DHT22;20065;48.380;10.892;2022-09-13T20:05:51;19.60;99.90
33741;DHT22;20065;48.380;10.892;2022-09-13T20:08:38;19.60;99.90
33741;DHT22;20065;48.380;10.892;2022-09-13T20:11:27;19.60;99.90
33741;DHT22;20065;48.380;10.892;2022-09-13T20:14:16;19.40;99.90
33741;DHT22;20065;48.380;10.892;2022-09-13T20:17:02;19.40;99.90
33741;DHT22;20065;48.380;10.892;2022-09-13T20:19:49;19.30;99.90